sensor_id;sensor_type;location;lat;lon;timestamp;temperature;humidity
26479;DHT22;14163;-26.142;27.992;2023-02-13T00:02:03;24.70;99.90
26479;DHT22;14163;-26.142;27.992;2023-02-13T00:04:31;24.80;99.90
26479;DHT22;14163;-26.142;27.992;2023-02-13T00:06:59;24.80;99.90
26479;DHT22;14163;-26.142;27.992;2023-02-13T00:09:28;24.80;99.90
26479;DHT22;14163;-26.142;27.992;2023-02-13T00:11:58;24.80;99.90
26479;DHT22;14163;-26.142;27.992;2023-02-13T00:14:26;24.70;99.90
26479;DHT22;14163;-26.142;27.992;2023-02-13T00:16:55;24.70;99.90
26479;DHT22;14163;-26.142;27.992;2023-02-13T00:19:23;24.70;99.90
26479;DHT22;14163;-26.142;27.992;2023-02-13T00:21:51;24.70;99.90
26479;DHT22;14163;-26.142;27.992;2023-02-13T00:24:20;24.60;99.90
26479;DHT22;14163;-26.142;27.992;2023-02-13T00:26:48;24.60;99.90
26479;DHT22;14163;-26.142;27.992;2023-02-13T00:29:18;24.60;99.90
26479;DHT22;14163;-26.142;27.992;2023-02-13T00:31:47;24.50;99.90
26479;DHT22;14163;-26.142;27.992;2023-02-13T00:34:15;24.50;99.90
26479;DHT22;14163;-26.142;27.992;2023-02-13T00:36:43;24.50;99.90
26479;DHT22;14163;-26.142;27.992;2023-02-13T00:39:11;24.50;99.90
26479;DHT22;14163;-26.142;27.992;2023-02-13T00:41:40;24.40;99.90
26479;DHT22;14163;-26.142;27.992;2023-02-13T00:44:08;24.40;99.90
26479;DHT22;14163;-26.142;27.992;2023-02-13T00:46:38;24.50;99.90
26479;DHT22;14163;-26.142;27.992;2023-02-13T00:49:06;24.50;99.90
26479;DHT22;14163;-26.142;27.992;2023-02-13T00:51:36;24.50;99.90
26479;DHT22;14163;-26.142;27.992;2023-02-13T00:54:04;24.50;99.90
26479;DHT22;14163;-26.142;27.992;2023-02-13T00:56:33;24.50;99.90
26479;DHT22;14163;-26.142;27.992;2023-02-13T00:59:01;24.50;99.90
26479;DHT22;14163;-26.142;27.992;2023-02-13T01:01:29;24.50;99.90
26479;DHT22;14163;-26.142;27.992;2023-02-13T01:03:59;24.50;99.90
26479;DHT22;14163;-26.142;27.992;2023-02-13T01:06:28;24.50;99.90
26479;DHT22;14163;-26.142;27.992;2023-02-13T01:08:56;24.40;99.90
26479;DHT22;14163;-26.142;27.992;2023-02-13T01:11:24;24.40;99.90
26479;DHT22;14163;-26.142;27.992;2023-02-13T01:13:53;24.50;99.90
26479;DHT22;14163;-26.142;27.992;2023-02-13T01:16:21;24.50;99.90
26479;DHT22;14163;-26.142;27.992;2023-02-13T01:18:49;24.50;99.90
26479;DHT22;14163;-26.142;27.992;2023-02-13T01:21:20;24.40;99.90
26479;DHT22;14163;-26.142;27.992;2023-02-13T01:23:49;24.40;99.90
26479;DHT22;14163;-26.142;27.992;2023-02-13T01:26:17;24.50;99.90
26479;DHT22;14163;-26.142;27.992;2023-02-13T01:28:46;24.50;99.90
26479;DHT22;14163;-26.142;27.992;2023-02-13T01:31:14;24.50;99.90
26479;DHT22;14163;-26.142;27.992;2023-02-13T01:33:43;24.60;99.90
26479;DHT22;14163;-26.142;27.992;2023-02-13T01:36:11;24.60;99.90
26479;DHT22;14163;-26.142;27.992;2023-02-13T01:38:42;24.50;99.90
26479;DHT22;14163;-26.142;27.992;2023-02-13T01:41:11;24.50;99.90
26479;DHT22;14163;-26.142;27.992;2023-02-13T01:43:47;24.50;99.90
26479;DHT22;14163;-26.142;27.992;2023-02-13T01:46:17;24.50;99.90
26479;DHT22;14163;-26.142;27.992;2023-02-13T01:48:46;24.50;99.90
26479;DHT22;14163;-26.142;27.992;2023-02-13T01:51:16;24.50;99.90
26479;DHT22;14163;-26.142;27.992;2023-02-13T01:53:47;24.50;99.90
26479;DHT22;14163;-26.142;27.992;2023-02-13T01:56:18;24.50;99.90
26479;DHT22;14163;-26.142;27.992;2023-02-13T01:58:48;24.40;99.90
26479;DHT22;14163;-26.142;27.992;2023-02-13T02:01:17;24.50;99.90
26479;DHT22;14163;-26.142;27.992;2023-02-13T02:03:46;24.50;99.90
26479;DHT22;14163;-26.142;27.992;2023-02-13T02:06:17;24.50;99.90
26479;DHT22;14163;-26.142;27.992;2023-02-13T02:08:48;24.50;99.90
26479;DHT22;14163;-26.142;27.992;2023-02-13T02:11:19;24.50;99.90
26479;DHT22;14163;-26.142;27.992;2023-02-13T02:13:49;24.50;99.90
26479;DHT22;14163;-26.142;27.992;2023-02-13T02:16:18;24.60;99.90
26479;DHT22;14163;-26.142;27.992;2023-02-13T02:18:46;24.60;99.90
26479;DHT22;14163;-26.142;27.992;2023-02-13T02:21:22;24.60;99.90
26479;DHT22;14163;-26.142;27.992;2023-02-13T02:32:37;24.50;99.90
26479;DHT22;14163;-26.142;27.992;2023-02-13T02:35:10;24.50;99.90
26479;DHT22;14163;-26.142;27.992;2023-02-13T02:37:44;24.50;99.90
26479;DHT22;14163;-26.142;27.992;2023-02-13T02:40:17;24.50;99.90
26479;DHT22;14163;-26.142;27.992;2023-02-13T02:42:51;24.50;99.90
26479;DHT22;14163;-26.142;27.992;2023-02-13T02:45:23;24.50;99.90
26479;DHT22;14163;-26.142;27.992;2023-02-13T02:47:55;24.50;99.90
26479;DHT22;14163;-26.142;27.992;2023-02-13T02:50:58;24.60;99.90
26479;DHT22;14163;-26.142;27.992;2023-02-13T02:53:31;24.60;99.90
26479;DHT22;14163;-26.142;27.992;2023-02-13T02:56:01;24.60;99.90
26479;DHT22;14163;-26.142;27.992;2023-02-13T02:58:35;24.60;99.90
26479;DHT22;14163;-26.142;27.992;2023-02-13T03:01:23;24.60;99.90
26479;DHT22;14163;-26.142;27.992;2023-02-13T03:04:12;24.60;99.90
26479;DHT22;14163;-26.142;27.992;2023-02-13T03:06:58;24.60;99.90
26479;DHT22;14163;-26.142;27.992;2023-02-13T03:09:28;24.50;99.90
26479;DHT22;14163;-26.142;27.992;2023-02-13T03:12:16;24.40;99.90
26479;DHT22;14163;-26.142;27.992;2023-02-13T03:15:02;24.20;99.90
26479;DHT22;14163;-26.142;27.992;2023-02-13T03:17:30;24.00;99.90
26479;DHT22;14163;-26.142;27.992;2023-02-13T03:20:21;24.00;99.90
26479;DHT22;14163;-26.142;27.992;2023-02-13T03:23:20;23.70;99.90
26479;DHT22;14163;-26.142;27.992;2023-02-13T03:28:35;23.60;99.90
26479;DHT22;14163;-26.142;27.992;2023-02-13T03:31:23;23.50;99.90
26479;DHT22;14163;-26.142;27.992;2023-02-13T03:33:55;23.40;99.90
26479;DHT22;14163;-26.142;27.992;2023-02-13T03:36:28;23.40;99.90
26479;DHT22;14163;-26.142;27.992;2023-02-13T03:39:16;23.40;99.90
26479;DHT22;14163;-26.142;27.992;2023-02-13T03:41:47;23.40;99.90
26479;DHT22;14163;-26.142;27.992;2023-02-13T03:44:17;23.40;99.90
26479;DHT22;14163;-26.142;27.992;2023-02-13T03:46:48;23.50;99.90
26479;DHT22;14163;-26.142;27.992;2023-02-13T03:49:19;23.50;99.90
26479;DHT22;14163;-26.142;27.992;2023-02-13T03:52:06;23.70;99.90
26479;DHT22;14163;-26.142;27.992;2023-02-13T03:54:37;23.90;99.90
26479;DHT22;14163;-26.142;27.992;2023-02-13T03:57:25;24.10;99.90
26479;DHT22;14163;-26.142;27.992;2023-02-13T04:00:12;24.00;99.90
26479;DHT22;14163;-26.142;27.992;2023-02-13T04:02:43;23.80;99.90
26479;DHT22;14163;-26.142;27.992;2023-02-13T04:05:15;23.70;99.90
26479;DHT22;14163;-26.142;27.992;2023-02-13T04:07:46;23.80;99.90
26479;DHT22;14163;-26.142;27.992;2023-02-13T04:10:15;23.80;99.90
26479;DHT22;14163;-26.142;27.992;2023-02-13T04:12:47;23.90;99.90
26479;DHT22;14163;-26.142;27.992;2023-02-13T04:15:19;24.00;99.90
26479;DHT22;14163;-26.142;27.992;2023-02-13T04:17:50;24.10;99.90
26479;DHT22;14163;-26.142;27.992;2023-02-13T04:20:19;23.90;99.90
26479;DHT22;14163;-26.142;27.992;2023-02-13T04:22:49;23.70;99.90
26479;DHT22;14163;-26.142;27.992;2023-02-13T04:25:17;23.60;99.90
26479;DHT22;14163;-26.142;27.992;2023-02-13T04:27:46;23.60;99.90
26479;DHT22;14163;-26.142;27.992;2023-02-13T04:30:14;23.60;99.90
26479;DHT22;14163;-26.142;27.992;2023-02-13T04:32:43;23.60;99.90
26479;DHT22;14163;-26.142;27.992;2023-02-13T04:35:11;23.30;99.90
26479;DHT22;14163;-26.142;27.992;2023-02-13T04:37:40;23.20;99.90
26479;DHT22;14163;-26.142;27.992;2023-02-13T04:40:10;23.20;99.90
26479;DHT22;14163;-26.142;27.992;2023-02-13T04:42:38;23.10;99.90
26479;DHT22;14163;-26.142;27.992;2023-02-13T04:45:07;23.10;99.90
26479;DHT22;14163;-26.142;27.992;2023-02-13T04:47:36;23.10;99.90
26479;DHT22;14163;-26.142;27.992;2023-02-13T04:50:04;23.00;99.90
26479;DHT22;14163;-26.142;27.992;2023-02-13T04:52:33;23.00;99.90
26479;DHT22;14163;-26.142;27.992;2023-02-13T04:55:01;22.90;99.90
26479;DHT22;14163;-26.142;27.992;2023-02-13T04:57:31;23.00;99.90
26479;DHT22;14163;-26.142;27.992;2023-02-13T04:59:59;22.90;99.90
26479;DHT22;14163;-26.142;27.992;2023-02-13T05:02:28;22.80;99.90
26479;DHT22;14163;-26.142;27.992;2023-02-13T05:04:57;22.80;99.90
26479;DHT22;14163;-26.142;27.992;2023-02-13T05:07:26;22.70;99.90
26479;DHT22;14163;-26.142;27.992;2023-02-13T05:09:54;22.70;99.90
26479;DHT22;14163;-26.142;27.992;2023-02-13T05:12:22;22.50;99.90
26479;DHT22;14163;-26.142;27.992;2023-02-13T05:14:52;22.50;99.90
26479;DHT22;14163;-26.142;27.992;2023-02-13T05:17:21;22.50;99.90
26479;DHT22;14163;-26.142;27.992;2023-02-13T05:19:49;22.50;99.90
26479;DHT22;14163;-26.142;27.992;2023-02-13T05:24:32;22.70;99.90
26479;DHT22;14163;-26.142;27.992;2023-02-13T05:27:01;22.60;99.90
26479;DHT22;14163;-26.142;27.992;2023-02-13T05:29:29;22.80;99.90
26479;DHT22;14163;-26.142;27.992;2023-02-13T05:31:56;22.80;99.90
26479;DHT22;14163;-26.142;27.992;2023-02-13T05:34:26;23.00;99.90
26479;DHT22;14163;-26.142;27.992;2023-02-13T05:36:55;23.10;99.90
26479;DHT22;14163;-26.142;27.992;2023-02-13T05:39:23;23.20;99.90
26479;DHT22;14163;-26.142;27.992;2023-02-13T05:41:53;23.40;99.90
26479;DHT22;14163;-26.142;27.992;2023-02-13T05:44:24;23.60;99.90
26479;DHT22;14163;-26.142;27.992;2023-02-13T05:46:53;23.50;99.90
26479;DHT22;14163;-26.142;27.992;2023-02-13T05:49:22;23.50;99.90
26479;DHT22;14163;-26.142;27.992;2023-02-13T05:51:50;23.20;99.90
26479;DHT22;14163;-26.142;27.992;2023-02-13T05:54:18;22.90;99.90
26479;DHT22;14163;-26.142;27.992;2023-02-13T05:56:47;23.00;99.90
26479;DHT22;14163;-26.142;27.992;2023-02-13T05:59:17;23.00;99.90
26479;DHT22;14163;-26.142;27.992;2023-02-13T06:01:45;22.90;99.90
26479;DHT22;14163;-26.142;27.992;2023-02-13T06:04:13;23.00;99.90
26479;DHT22;14163;-26.142;27.992;2023-02-13T06:06:42;22.90;99.90
26479;DHT22;14163;-26.142;27.992;2023-02-13T06:09:10;23.20;99.90
26479;DHT22;14163;-26.142;27.992;2023-02-13T06:11:38;23.20;99.90
26479;DHT22;14163;-26.142;27.992;2023-02-13T06:14:07;23.20;99.90
26479;DHT22;14163;-26.142;27.992;2023-02-13T06:16:37;23.20;99.90
26479;DHT22;14163;-26.142;27.992;2023-02-13T06:19:05;23.30;99.90
26479;DHT22;14163;-26.142;27.992;2023-02-13T06:21:33;23.30;99.90
26479;DHT22;14163;-26.142;27.992;2023-02-13T06:24:03;23.30;99.90
26479;DHT22;14163;-26.142;27.992;2023-02-13T06:26:31;23.30;99.90
26479;DHT22;14163;-26.142;27.992;2023-02-13T06:28:59;23.20;99.90
26479;DHT22;14163;-26.142;27.992;2023-02-13T06:31:28;23.30;99.90
26479;DHT22;14163;-26.142;27.992;2023-02-13T06:33:58;23.20;99.90
26479;DHT22;14163;-26.142;27.992;2023-02-13T06:36:26;23.30;99.90
26479;DHT22;14163;-26.142;27.992;2023-02-13T06:38:54;23.50;99.90
26479;DHT22;14163;-26.142;27.992;2023-02-13T06:41:23;23.50;99.90
26479;DHT22;14163;-26.142;27.992;2023-02-13T06:43:51;23.40;99.90
26479;DHT22;14163;-26.142;27.992;2023-02-13T06:46:19;23.20;99.90
26479;DHT22;14163;-26.142;27.992;2023-02-13T06:48:48;23.20;99.90
26479;DHT22;14163;-26.142;27.992;2023-02-13T06:51:18;23.30;99.90
26479;DHT22;14163;-26.142;27.992;2023-02-13T06:53:46;23.50;99.90
26479;DHT22;14163;-26.142;27.992;2023-02-13T06:56:14;23.60;99.90
26479;DHT22;14163;-26.142;27.992;2023-02-13T06:58:43;23.80;99.90
26479;DHT22;14163;-26.142;27.992;2023-02-13T07:01:11;23.70;99.90
26479;DHT22;14163;-26.142;27.992;2023-02-13T07:03:39;23.50;99.90
26479;DHT22;14163;-26.142;27.992;2023-02-13T07:06:08;23.40;99.90
26479;DHT22;14163;-26.142;27.992;2023-02-13T07:08:38;23.40;99.90
26479;DHT22;14163;-26.142;27.992;2023-02-13T07:11:06;23.50;99.90
26479;DHT22;14163;-26.142;27.992;2023-02-13T07:13:34;23.30;99.90
26479;DHT22;14163;-26.142;27.992;2023-02-13T07:16:03;23.30;99.90
26479;DHT22;14163;-26.142;27.992;2023-02-13T07:18:31;23.40;99.90
26479;DHT22;14163;-26.142;27.992;2023-02-13T07:21:00;23.30;99.90
26479;DHT22;14163;-26.142;27.992;2023-02-13T07:23:28;23.30;99.90
26479;DHT22;14163;-26.142;27.992;2023-02-13T07:25:59;23.50;99.90
26479;DHT22;14163;-26.142;27.992;2023-02-13T07:28:28;23.70;99.90
26479;DHT22;14163;-26.142;27.992;2023-02-13T07:30:56;23.90;99.90
26479;DHT22;14163;-26.142;27.992;2023-02-13T07:33:26;23.80;99.90
26479;DHT22;14163;-26.142;27.992;2023-02-13T07:35:54;23.70;99.90
26479;DHT22;14163;-26.142;27.992;2023-02-13T07:38:22;23.70;99.90
26479;DHT22;14163;-26.142;27.992;2023-02-13T07:40:51;23.70;99.90
26479;DHT22;14163;-26.142;27.992;2023-02-13T07:43:21;23.80;99.90
26479;DHT22;14163;-26.142;27.992;2023-02-13T07:45:50;23.70;99.90
26479;DHT22;14163;-26.142;27.992;2023-02-13T07:48:20;23.50;99.90
26479;DHT22;14163;-26.142;27.992;2023-02-13T07:50:49;23.50;99.90
26479;DHT22;14163;-26.142;27.992;2023-02-13T07:53:17;23.70;99.90
26479;DHT22;14163;-26.142;27.992;2023-02-13T07:55:45;23.70;99.90
26479;DHT22;14163;-26.142;27.992;2023-02-13T07:58:14;24.00;99.90
26479;DHT22;14163;-26.142;27.992;2023-02-13T08:00:44;24.10;99.90
26479;DHT22;14163;-26.142;27.992;2023-02-13T08:03:12;24.00;99.90
26479;DHT22;14163;-26.142;27.992;2023-02-13T08:05:40;24.00;99.90
26479;DHT22;14163;-26.142;27.992;2023-02-13T08:08:08;24.20;99.90
26479;DHT22;14163;-26.142;27.992;2023-02-13T08:10:37;24.50;99.90
26479;DHT22;14163;-26.142;27.992;2023-02-13T08:13:23;24.80;99.90
26479;DHT22;14163;-26.142;27.992;2023-02-13T08:15:53;25.10;99.90
26479;DHT22;14163;-26.142;27.992;2023-02-13T08:18:22;25.10;99.90
26479;DHT22;14163;-26.142;27.992;2023-02-13T08:21:33;24.90;99.90
26479;DHT22;14163;-26.142;27.992;2023-02-13T08:24:05;24.90;99.90
26479;DHT22;14163;-26.142;27.992;2023-02-13T08:26:34;24.80;99.90
26479;DHT22;14163;-26.142;27.992;2023-02-13T08:29:02;25.00;99.90
26479;DHT22;14163;-26.142;27.992;2023-02-13T08:31:30;24.70;99.90
26479;DHT22;14163;-26.142;27.992;2023-02-13T08:33:58;24.60;99.90
26479;DHT22;14163;-26.142;27.992;2023-02-13T08:36:27;24.80;99.90
26479;DHT22;14163;-26.142;27.992;2023-02-13T08:38:57;25.00;99.90
26479;DHT22;14163;-26.142;27.992;2023-02-13T08:41:25;25.10;99.90
26479;DHT22;14163;-26.142;27.992;2023-02-13T08:43:53;25.10;99.90
26479;DHT22;14163;-26.142;27.992;2023-02-13T08:46:22;25.40;99.90
26479;DHT22;14163;-26.142;27.992;2023-02-13T08:48:50;25.60;99.90
26479;DHT22;14163;-26.142;27.992;2023-02-13T08:51:18;25.20;99.90
26479;DHT22;14163;-26.142;27.992;2023-02-13T08:53:46;24.80;99.90
26479;DHT22;14163;-26.142;27.992;2023-02-13T08:56:16;24.60;99.90
26479;DHT22;14163;-26.142;27.992;2023-02-13T08:58:47;24.70;99.90
26479;DHT22;14163;-26.142;27.992;2023-02-13T09:01:15;24.80;99.90
26479;DHT22;14163;-26.142;27.992;2023-02-13T09:03:43;24.80;99.90
26479;DHT22;14163;-26.142;27.992;2023-02-13T09:06:12;25.00;99.90
26479;DHT22;14163;-26.142;27.992;2023-02-13T09:08:40;25.20;99.90
26479;DHT22;14163;-26.142;27.992;2023-02-13T09:11:08;25.50;99.90
26479;DHT22;14163;-26.142;27.992;2023-02-13T09:13:39;25.40;99.90
26479;DHT22;14163;-26.142;27.992;2023-02-13T09:16:07;25.50;99.90
26479;DHT22;14163;-26.142;27.992;2023-02-13T09:18:36;25.80;99.90
26479;DHT22;14163;-26.142;27.992;2023-02-13T09:21:04;26.00;99.90
26479;DHT22;14163;-26.142;27.992;2023-02-13T09:23:33;26.00;99.90
26479;DHT22;14163;-26.142;27.992;2023-02-13T09:26:02;26.10;99.90
26479;DHT22;14163;-26.142;27.992;2023-02-13T09:28:31;26.10;99.90
26479;DHT22;14163;-26.142;27.992;2023-02-13T09:31:05;26.00;99.90
26479;DHT22;14163;-26.142;27.992;2023-02-13T09:33:34;26.30;99.90
26479;DHT22;14163;-26.142;27.992;2023-02-13T09:36:03;26.40;99.90
26479;DHT22;14163;-26.142;27.992;2023-02-13T09:38:32;26.60;99.90
26479;DHT22;14163;-26.142;27.992;2023-02-13T09:41:01;26.50;99.90
26479;DHT22;14163;-26.142;27.992;2023-02-13T09:43:31;26.60;99.90
26479;DHT22;14163;-26.142;27.992;2023-02-13T09:46:01;26.80;99.90
26479;DHT22;14163;-26.142;27.992;2023-02-13T09:48:34;27.00;99.90
26479;DHT22;14163;-26.142;27.992;2023-02-13T09:51:03;27.10;99.90
26479;DHT22;14163;-26.142;27.992;2023-02-13T09:53:32;27.10;99.90
26479;DHT22;14163;-26.142;27.992;2023-02-13T09:56:04;26.90;99.90
26479;DHT22;14163;-26.142;27.992;2023-02-13T09:58:39;27.00;99.90
26479;DHT22;14163;-26.142;27.992;2023-02-13T10:01:17;27.10;99.90
26479;DHT22;14163;-26.142;27.992;2023-02-13T10:03:50;27.10;99.90
26479;DHT22;14163;-26.142;27.992;2023-02-13T10:22:32;23.70;99.90
26479;DHT22;14163;-26.142;27.992;2023-02-13T10:25:02;23.60;99.90
26479;DHT22;14163;-26.142;27.992;2023-02-13T10:27:33;23.90;99.90
26479;DHT22;14163;-26.142;27.992;2023-02-13T10:30:04;24.10;99.90
26479;DHT22;14163;-26.142;27.992;2023-02-13T10:32:36;24.40;99.90
26479;DHT22;14163;-26.142;27.992;2023-02-13T10:35:09;24.60;99.90
26479;DHT22;14163;-26.142;27.992;2023-02-13T10:37:45;25.10;99.90
26479;DHT22;14163;-26.142;27.992;2023-02-13T10:40:16;25.40;99.90
26479;DHT22;14163;-26.142;27.992;2023-02-13T10:42:45;25.20;99.90
26479;DHT22;14163;-26.142;27.992;2023-02-13T10:45:19;25.40;99.90
26479;DHT22;14163;-26.142;27.992;2023-02-13T10:47:56;25.80;99.90
26479;DHT22;14163;-26.142;27.992;2023-02-13T10:50:29;25.90;99.90
26479;DHT22;14163;-26.142;27.992;2023-02-13T10:53:05;25.70;99.90
26479;DHT22;14163;-26.142;27.992;2023-02-13T10:58:25;26.20;99.90
26479;DHT22;14163;-26.142;27.992;2023-02-13T11:01:00;26.40;99.90
26479;DHT22;14163;-26.142;27.992;2023-02-13T11:03:29;26.20;99.90
26479;DHT22;14163;-26.142;27.992;2023-02-13T11:05:58;25.90;99.90
26479;DHT22;14163;-26.142;27.992;2023-02-13T11:08:32;25.50;99.90
26479;DHT22;14163;-26.142;27.992;2023-02-13T11:11:00;25.40;99.90
26479;DHT22;14163;-26.142;27.992;2023-02-13T11:13:28;25.60;99.90
26479;DHT22;14163;-26.142;27.992;2023-02-13T11:15:57;25.90;99.90
26479;DHT22;14163;-26.142;27.992;2023-02-13T11:18:27;26.20;99.90
26479;DHT22;14163;-26.142;27.992;2023-02-13T11:21:00;26.30;99.90
26479;DHT22;14163;-26.142;27.992;2023-02-13T11:23:38;26.30;99.90
26479;DHT22;14163;-26.142;27.992;2023-02-13T11:26:08;26.00;99.90
26479;DHT22;14163;-26.142;27.992;2023-02-13T11:28:37;25.70;99.90
26479;DHT22;14163;-26.142;27.992;2023-02-13T11:31:10;25.60;99.90
26479;DHT22;14163;-26.142;27.992;2023-02-13T11:33:39;25.30;99.90
26479;DHT22;14163;-26.142;27.992;2023-02-13T11:36:09;25.50;99.90
26479;DHT22;14163;-26.142;27.992;2023-02-13T11:38:42;25.40;99.90
26479;DHT22;14163;-26.142;27.992;2023-02-13T11:41:10;25.30;99.90
26479;DHT22;14163;-26.142;27.992;2023-02-13T11:43:43;25.20;99.90
26479;DHT22;14163;-26.142;27.992;2023-02-13T11:46:16;25.00;99.90
26479;DHT22;14163;-26.142;27.992;2023-02-13T11:48:54;25.00;99.90
26479;DHT22;14163;-26.142;27.992;2023-02-13T11:54:11;24.90;99.90
26479;DHT22;14163;-26.142;27.992;2023-02-13T11:56:47;24.80;99.90
26479;DHT22;14163;-26.142;27.992;2023-02-13T11:59:16;24.90;99.90
26479;DHT22;14163;-26.142;27.992;2023-02-13T12:01:44;25.00;99.90
26479;DHT22;14163;-26.142;27.992;2023-02-13T12:04:15;25.20;99.90
26479;DHT22;14163;-26.142;27.992;2023-02-13T12:09:34;25.80;99.90
26479;DHT22;14163;-26.142;27.992;2023-02-13T12:12:03;25.80;99.90
26479;DHT22;14163;-26.142;27.992;2023-02-13T12:14:32;26.00;99.90
26479;DHT22;14163;-26.142;27.992;2023-02-13T12:17:04;26.00;99.90
26479;DHT22;14163;-26.142;27.992;2023-02-13T12:19:34;26.00;99.90
26479;DHT22;14163;-26.142;27.992;2023-02-13T12:22:15;26.10;99.90
26479;DHT22;14163;-26.142;27.992;2023-02-13T12:27:54;26.20;99.90
26479;DHT22;14163;-26.142;27.992;2023-02-13T12:30:32;26.10;99.90
26479;DHT22;14163;-26.142;27.992;2023-02-13T12:33:03;26.20;99.90
26479;DHT22;14163;-26.142;27.992;2023-02-13T12:35:41;26.30;99.90
26479;DHT22;14163;-26.142;27.992;2023-02-13T12:38:15;26.20;99.90
26479;DHT22;14163;-26.142;27.992;2023-02-13T12:41:04;26.20;99.90
26479;DHT22;14163;-26.142;27.992;2023-02-13T12:46:28;26.40;99.90
26479;DHT22;14163;-26.142;27.992;2023-02-13T12:48:59;26.50;99.90
26479;DHT22;14163;-26.142;27.992;2023-02-13T12:51:38;26.40;99.90
26479;DHT22;14163;-26.142;27.992;2023-02-13T12:54:17;26.70;99.90
26479;DHT22;14163;-26.142;27.992;2023-02-13T12:56:56;26.70;99.90
26479;DHT22;14163;-26.142;27.992;2023-02-13T12:59:29;26.60;99.90
26479;DHT22;14163;-26.142;27.992;2023-02-13T13:02:07;26.50;99.90
26479;DHT22;14163;-26.142;27.992;2023-02-13T13:04:41;26.50;99.90
26479;DHT22;14163;-26.142;27.992;2023-02-13T13:07:25;26.30;99.90
26479;DHT22;14163;-26.142;27.992;2023-02-13T13:09:59;26.30;99.90
26479;DHT22;14163;-26.142;27.992;2023-02-13T13:12:38;26.10;99.90
26479;DHT22;14163;-26.142;27.992;2023-02-13T13:15:10;26.30;99.90
26479;DHT22;14163;-26.142;27.992;2023-02-13T13:17:46;26.30;99.90
26479;DHT22;14163;-26.142;27.992;2023-02-13T13:20:24;26.20;99.90
26479;DHT22;14163;-26.142;27.992;2023-02-13T13:22:55;26.20;99.90
26479;DHT22;14163;-26.142;27.992;2023-02-13T13:25:27;26.40;99.90
26479;DHT22;14163;-26.142;27.992;2023-02-13T13:27:58;26.20;99.90
26479;DHT22;14163;-26.142;27.992;2023-02-13T13:30:29;26.20;99.90
26479;DHT22;14163;-26.142;27.992;2023-02-13T13:33:01;26.30;99.90
26479;DHT22;14163;-26.142;27.992;2023-02-13T13:35:30;26.60;99.90
26479;DHT22;14163;-26.142;27.992;2023-02-13T13:38:00;26.70;99.90
26479;DHT22;14163;-26.142;27.992;2023-02-13T13:40:36;26.80;99.90
26479;DHT22;14163;-26.142;27.992;2023-02-13T13:43:10;26.80;99.90
26479;DHT22;14163;-26.142;27.992;2023-02-13T13:45:41;26.90;99.90
26479;DHT22;14163;-26.142;27.992;2023-02-13T13:51:01;27.40;99.90
26479;DHT22;14163;-26.142;27.992;2023-02-13T13:53:29;27.60;99.90
26479;DHT22;14163;-26.142;27.992;2023-02-13T13:56:01;27.80;99.90
26479;DHT22;14163;-26.142;27.992;2023-02-13T13:58:32;27.90;99.90
26479;DHT22;14163;-26.142;27.992;2023-02-13T14:03:52;28.00;99.90
26479;DHT22;14163;-26.142;27.992;2023-02-13T14:06:23;28.00;99.90
26479;DHT22;14163;-26.142;27.992;2023-02-13T14:08:59;28.00;99.90
26479;DHT22;14163;-26.142;27.992;2023-02-13T14:11:31;28.00;99.90
26479;DHT22;14163;-26.142;27.992;2023-02-13T14:14:00;28.00;99.90
26479;DHT22;14163;-26.142;27.992;2023-02-13T14:16:40;28.00;99.90
26479;DHT22;14163;-26.142;27.992;2023-02-13T14:19:22;28.00;99.90
26479;DHT22;14163;-26.142;27.992;2023-02-13T14:21:53;28.00;99.90
26479;DHT22;14163;-26.142;27.992;2023-02-13T14:24:21;28.00;99.90
26479;DHT22;14163;-26.142;27.992;2023-02-13T14:26:52;28.00;99.90
26479;DHT22;14163;-26.142;27.992;2023-02-13T14:29:30;28.00;99.90
26479;DHT22;14163;-26.142;27.992;2023-02-13T14:32:03;27.90;99.90
26479;DHT22;14163;-26.142;27.992;2023-02-13T14:34:32;27.90;99.90
26479;DHT22;14163;-26.142;27.992;2023-02-13T14:37:11;27.80;99.90
26479;DHT22;14163;-26.142;27.992;2023-02-13T14:42:28;27.80;99.90
26479;DHT22;14163;-26.142;27.992;2023-02-13T14:44:57;27.70;99.90
26479;DHT22;14163;-26.142;27.992;2023-02-13T14:47:27;27.70;99.90
26479;DHT22;14163;-26.142;27.992;2023-02-13T14:49:57;27.70;99.90
26479;DHT22;14163;-26.142;27.992;2023-02-13T14:52:28;27.80;99.90
26479;DHT22;14163;-26.142;27.992;2023-02-13T14:55:01;27.80;99.90
26479;DHT22;14163;-26.142;27.992;2023-02-13T14:57:30;27.80;99.90
26479;DHT22;14163;-26.142;27.992;2023-02-13T15:00:00;27.80;99.90
26479;DHT22;14163;-26.142;27.992;2023-02-13T15:02:30;27.70;99.90
26479;DHT22;14163;-26.142;27.992;2023-02-13T15:05:01;27.70;99.90
26479;DHT22;14163;-26.142;27.992;2023-02-13T15:07:32;27.70;99.90
26479;DHT22;14163;-26.142;27.992;2023-02-13T15:10:03;27.70;99.90
26479;DHT22;14163;-26.142;27.992;2023-02-13T15:12:32;27.70;99.90
26479;DHT22;14163;-26.142;27.992;2023-02-13T15:15:04;27.70;99.90
26479;DHT22;14163;-26.142;27.992;2023-02-13T15:17:44;27.70;99.90
26479;DHT22;14163;-26.142;27.992;2023-02-13T15:20:17;27.80;99.90
26479;DHT22;14163;-26.142;27.992;2023-02-13T15:22:50;27.80;99.90
26479;DHT22;14163;-26.142;27.992;2023-02-13T15:25:22;27.80;99.90
26479;DHT22;14163;-26.142;27.992;2023-02-13T15:27:51;27.80;99.90
26479;DHT22;14163;-26.142;27.992;2023-02-13T15:30:21;27.90;99.90
26479;DHT22;14163;-26.142;27.992;2023-02-13T15:32:54;27.90;99.90
26479;DHT22;14163;-26.142;27.992;2023-02-13T15:35:23;27.90;99.90
26479;DHT22;14163;-26.142;27.992;2023-02-13T15:37:53;27.90;99.90
26479;DHT22;14163;-26.142;27.992;2023-02-13T15:40:24;28.00;99.90
26479;DHT22;14163;-26.142;27.992;2023-02-13T15:42:52;28.00;99.90
26479;DHT22;14163;-26.142;27.992;2023-02-13T15:45:21;28.00;99.90
26479;DHT22;14163;-26.142;27.992;2023-02-13T15:47:50;28.00;99.90
26479;DHT22;14163;-26.142;27.992;2023-02-13T15:50:45;28.00;99.90
26479;DHT22;14163;-26.142;27.992;2023-02-13T15:53:14;27.90;99.90
26479;DHT22;14163;-26.142;27.992;2023-02-13T15:55:53;27.80;99.90
26479;DHT22;14163;-26.142;27.992;2023-02-13T15:58:22;27.80;99.90
26479;DHT22;14163;-26.142;27.992;2023-02-13T16:00:52;27.70;99.90
26479;DHT22;14163;-26.142;27.992;2023-02-13T16:03:21;27.70;99.90
26479;DHT22;14163;-26.142;27.992;2023-02-13T16:05:53;27.80;99.90
26479;DHT22;14163;-26.142;27.992;2023-02-13T16:08:26;27.80;99.90
26479;DHT22;14163;-26.142;27.992;2023-02-13T16:13:56;27.70;99.90
26479;DHT22;14163;-26.142;27.992;2023-02-13T16:16:25;27.70;99.90
26479;DHT22;14163;-26.142;27.992;2023-02-13T16:18:54;27.70;99.90
26479;DHT22;14163;-26.142;27.992;2023-02-13T16:21:24;27.70;99.90
26479;DHT22;14163;-26.142;27.992;2023-02-13T16:23:55;27.70;99.90